sensor_id;sensor_type;location;lat;lon;timestamp;P1;durP1;ratioP1;P2;durP2;ratioP2
72127;SDS011;60000;51.030;7.024;2023-10-08T00:02:03;6.93;;;2.22;;
72127;SDS011;60000;51.030;7.024;2023-10-08T00:04:28;6.27;;;2.30;;
72127;SDS011;60000;51.030;7.024;2023-10-08T00:06:53;5.87;;;2.60;;
72127;SDS011;60000;51.030;7.024;2023-10-08T00:09:19;5.97;;;2.60;;
72127;SDS011;60000;51.030;7.024;2023-10-08T00:11:46;6.60;;;2.40;;
72127;SDS011;60000;51.030;7.024;2023-10-08T00:14:18;6.97;;;2.38;;
72127;SDS011;60000;51.030;7.024;2023-10-08T00:16:46;7.18;;;2.20;;
72127;SDS011;60000;51.030;7.024;2023-10-08T00:19:14;6.38;;;2.20;;
72127;SDS011;60000;51.030;7.024;2023-10-08T00:21:42;7.65;;;2.45;;
72127;SDS011;60000;51.030;7.024;2023-10-08T00:24:10;6.00;;;2.27;;
72127;SDS011;60000;51.030;7.024;2023-10-08T00:26:35;7.05;;;2.45;;
72127;SDS011;60000;51.030;7.024;2023-10-08T00:29:05;6.63;;;2.40;;
72127;SDS011;60000;51.030;7.024;2023-10-08T00:31:32;6.35;;;2.40;;
72127;SDS011;60000;51.030;7.024;2023-10-08T00:34:05;7.65;;;2.45;;
72127;SDS011;60000;51.030;7.024;2023-10-08T00:36:32;6.10;;;1.85;;
72127;SDS011;60000;51.030;7.024;2023-10-08T00:38:59;6.47;;;2.30;;
72127;SDS011;60000;51.030;7.024;2023-10-08T00:41:25;6.43;;;2.00;;
72127;SDS011;60000;51.030;7.024;2023-10-08T00:43:55;6.38;;;2.40;;
72127;SDS011;60000;51.030;7.024;2023-10-08T00:46:22;7.63;;;2.30;;
72127;SDS011;60000;51.030;7.024;2023-10-08T00:48:49;6.00;;;2.00;;
72127;SDS011;60000;51.030;7.024;2023-10-08T00:51:18;6.18;;;2.17;;
72127;SDS011;60000;51.030;7.024;2023-10-08T00:53:54;6.13;;;2.17;;
72127;SDS011;60000;51.030;7.024;2023-10-08T00:56:33;6.00;;;2.10;;
72127;SDS011;60000;51.030;7.024;2023-10-08T00:59:31;6.82;;;2.33;;
72127;SDS011;60000;51.030;7.024;2023-10-08T01:02:02;8.38;;;2.42;;
72127;SDS011;60000;51.030;7.024;2023-10-08T01:04:31;6.55;;;2.60;;
72127;SDS011;60000;51.030;7.024;2023-10-08T01:07:02;7.40;;;2.43;;
72127;SDS011;60000;51.030;7.024;2023-10-08T01:09:38;6.55;;;2.53;;
72127;SDS011;60000;51.030;7.024;2023-10-08T01:14:32;7.73;;;2.97;;
72127;SDS011;60000;51.030;7.024;2023-10-08T01:16:58;7.33;;;2.47;;
72127;SDS011;60000;51.030;7.024;2023-10-08T01:19:23;6.70;;;2.63;;
72127;SDS011;60000;51.030;7.024;2023-10-08T01:21:50;8.20;;;3.30;;
72127;SDS011;60000;51.030;7.024;2023-10-08T01:24:16;9.30;;;2.93;;
72127;SDS011;60000;51.030;7.024;2023-10-08T01:26:42;8.00;;;2.72;;
72127;SDS011;60000;51.030;7.024;2023-10-08T01:29:10;7.53;;;2.90;;
72127;SDS011;60000;51.030;7.024;2023-10-08T01:31:44;8.60;;;2.55;;
72127;SDS011;60000;51.030;7.024;2023-10-08T01:34:10;7.07;;;2.65;;
72127;SDS011;60000;51.030;7.024;2023-10-08T01:36:41;6.93;;;2.58;;
72127;SDS011;60000;51.030;7.024;2023-10-08T01:39:09;7.88;;;2.90;;
72127;SDS011;60000;51.030;7.024;2023-10-08T01:41:40;7.90;;;3.33;;
72127;SDS011;60000;51.030;7.024;2023-10-08T01:44:07;8.10;;;3.20;;
72127;SDS011;60000;51.030;7.024;2023-10-08T01:46:33;6.60;;;2.60;;
72127;SDS011;60000;51.030;7.024;2023-10-08T01:48:59;6.47;;;2.63;;
72127;SDS011;60000;51.030;7.024;2023-10-08T01:51:29;8.38;;;2.90;;
72127;SDS011;60000;51.030;7.024;2023-10-08T01:54:09;7.43;;;3.10;;
72127;SDS011;60000;51.030;7.024;2023-10-08T01:56:39;10.15;;;3.00;;
72127;SDS011;60000;51.030;7.024;2023-10-08T01:59:15;7.43;;;2.50;;
72127;SDS011;60000;51.030;7.024;2023-10-08T02:01:41;5.82;;;2.30;;
72127;SDS011;60000;51.030;7.024;2023-10-08T02:04:08;8.10;;;2.63;;
72127;SDS011;60000;51.030;7.024;2023-10-08T02:06:35;6.85;;;2.30;;
72127;SDS011;60000;51.030;7.024;2023-10-08T02:09:01;7.20;;;3.00;;
72127;SDS011;60000;51.030;7.024;2023-10-08T02:11:41;6.95;;;2.67;;
72127;SDS011;60000;51.030;7.024;2023-10-08T02:14:16;7.40;;;2.67;;
72127;SDS011;60000;51.030;7.024;2023-10-08T02:16:42;8.57;;;3.40;;
72127;SDS011;60000;51.030;7.024;2023-10-08T02:19:08;8.27;;;3.33;;
72127;SDS011;60000;51.030;7.024;2023-10-08T02:21:35;9.13;;;2.83;;
72127;SDS011;60000;51.030;7.024;2023-10-08T02:24:03;7.10;;;2.78;;
72127;SDS011;60000;51.030;7.024;2023-10-08T02:26:29;7.10;;;2.80;;
72127;SDS011;60000;51.030;7.024;2023-10-08T02:28:54;8.63;;;2.80;;
72127;SDS011;60000;51.030;7.024;2023-10-08T02:31:19;6.37;;;2.47;;
72127;SDS011;60000;51.030;7.024;2023-10-08T02:33:45;7.45;;;2.40;;
72127;SDS011;60000;51.030;7.024;2023-10-08T02:36:10;6.97;;;2.60;;
72127;SDS011;60000;51.030;7.024;2023-10-08T02:38:35;7.53;;;2.33;;
72127;SDS011;60000;51.030;7.024;2023-10-08T02:41:03;6.55;;;2.65;;
72127;SDS011;60000;51.030;7.024;2023-10-08T02:43:31;6.37;;;2.70;;
72127;SDS011;60000;51.030;7.024;2023-10-08T02:46:01;6.15;;;2.47;;
72127;SDS011;60000;51.030;7.024;2023-10-08T02:48:27;7.00;;;2.40;;
72127;SDS011;60000;51.030;7.024;2023-10-08T02:50:52;10.10;;;2.90;;
72127;SDS011;60000;51.030;7.024;2023-10-08T02:53:19;6.20;;;2.30;;
72127;SDS011;60000;51.030;7.024;2023-10-08T02:55:48;5.90;;;2.03;;
72127;SDS011;60000;51.030;7.024;2023-10-08T02:58:14;5.70;;;2.30;;
72127;SDS011;60000;51.030;7.024;2023-10-08T03:00:41;6.13;;;2.10;;
72127;SDS011;60000;51.030;7.024;2023-10-08T03:03:07;7.47;;;2.70;;
72127;SDS011;60000;51.030;7.024;2023-10-08T03:05:40;6.55;;;2.10;;
72127;SDS011;60000;51.030;7.024;2023-10-08T03:08:16;6.78;;;2.40;;
72127;SDS011;60000;51.030;7.024;2023-10-08T03:10:46;6.80;;;2.45;;
72127;SDS011;60000;51.030;7.024;2023-10-08T03:13:13;8.45;;;2.50;;
72127;SDS011;60000;51.030;7.024;2023-10-08T03:15:41;6.73;;;2.50;;
72127;SDS011;60000;51.030;7.024;2023-10-08T03:18:23;7.00;;;2.50;;
72127;SDS011;60000;51.030;7.024;2023-10-08T03:20:49;6.57;;;2.30;;
72127;SDS011;60000;51.030;7.024;2023-10-08T03:23:15;6.53;;;2.23;;
72127;SDS011;60000;51.030;7.024;2023-10-08T03:25:59;6.82;;;2.45;;
72127;SDS011;60000;51.030;7.024;2023-10-08T03:28:34;6.13;;;2.40;;
72127;SDS011;60000;51.030;7.024;2023-10-08T03:31:00;6.30;;;2.00;;
72127;SDS011;60000;51.030;7.024;2023-10-08T03:33:38;7.15;;;2.50;;
72127;SDS011;60000;51.030;7.024;2023-10-08T03:36:05;6.93;;;2.20;;
72127;SDS011;60000;51.030;7.024;2023-10-08T03:38:39;7.15;;;2.85;;
72127;SDS011;60000;51.030;7.024;2023-10-08T03:41:15;6.53;;;2.40;;
72127;SDS011;60000;51.030;7.024;2023-10-08T03:43:44;6.53;;;2.80;;
72127;SDS011;60000;51.030;7.024;2023-10-08T03:46:26;5.63;;;2.40;;
72127;SDS011;60000;51.030;7.024;2023-10-08T03:48:52;5.68;;;2.20;;
72127;SDS011;60000;51.030;7.024;2023-10-08T03:51:18;7.63;;;2.70;;
72127;SDS011;60000;51.030;7.024;2023-10-08T03:53:46;7.18;;;2.72;;
72127;SDS011;60000;51.030;7.024;2023-10-08T03:56:27;6.82;;;2.50;;
72127;SDS011;60000;51.030;7.024;2023-10-08T03:58:56;6.55;;;2.42;;
72127;SDS011;60000;51.030;7.024;2023-10-08T04:01:25;7.32;;;2.50;;
72127;SDS011;60000;51.030;7.024;2023-10-08T04:03:55;6.68;;;2.70;;
72127;SDS011;60000;51.030;7.024;2023-10-08T04:06:24;6.28;;;2.58;;
72127;SDS011;60000;51.030;7.024;2023-10-08T04:08:59;6.97;;;2.50;;
72127;SDS011;60000;51.030;7.024;2023-10-08T04:11:34;8.65;;;2.90;;
72127;SDS011;60000;51.030;7.024;2023-10-08T04:14:12;7.32;;;2.50;;
72127;SDS011;60000;51.030;7.024;2023-10-08T04:16:41;7.18;;;2.50;;
72127;SDS011;60000;51.030;7.024;2023-10-08T04:19:07;8.93;;;2.78;;
72127;SDS011;60000;51.030;7.024;2023-10-08T04:21:32;6.47;;;2.25;;
72127;SDS011;60000;51.030;7.024;2023-10-08T04:23:59;6.20;;;2.47;;
72127;SDS011;60000;51.030;7.024;2023-10-08T04:26:30;6.43;;;1.90;;
72127;SDS011;60000;51.030;7.024;2023-10-08T04:28:57;7.10;;;2.85;;
72127;SDS011;60000;51.030;7.024;2023-10-08T04:31:24;6.88;;;2.42;;
72127;SDS011;60000;51.030;7.024;2023-10-08T04:33:53;6.30;;;2.42;;
72127;SDS011;60000;51.030;7.024;2023-10-08T04:36:19;7.75;;;2.40;;
72127;SDS011;60000;51.030;7.024;2023-10-08T04:38:45;5.80;;;1.90;;
72127;SDS011;60000;51.030;7.024;2023-10-08T04:41:14;6.55;;;2.00;;
72127;SDS011;60000;51.030;7.024;2023-10-08T04:43:43;5.88;;;2.17;;
72127;SDS011;60000;51.030;7.024;2023-10-08T04:46:09;5.87;;;2.00;;
72127;SDS011;60000;51.030;7.024;2023-10-08T04:48:47;7.75;;;2.35;;
72127;SDS011;60000;51.030;7.024;2023-10-08T04:51:14;6.57;;;2.45;;
72127;SDS011;60000;51.030;7.024;2023-10-08T04:53:40;7.32;;;2.42;;
72127;SDS011;60000;51.030;7.024;2023-10-08T04:56:10;7.50;;;2.70;;
72127;SDS011;60000;51.030;7.024;2023-10-08T04:58:41;9.68;;;2.60;;
72127;SDS011;60000;51.030;7.024;2023-10-08T05:01:11;7.55;;;2.40;;
72127;SDS011;60000;51.030;7.024;2023-10-08T05:06:20;6.47;;;2.25;;
72127;SDS011;60000;51.030;7.024;2023-10-08T05:09:05;7.55;;;2.58;;
72127;SDS011;60000;51.030;7.024;2023-10-08T05:11:49;7.63;;;2.40;;
72127;SDS011;60000;51.030;7.024;2023-10-08T05:14:16;7.25;;;2.38;;
72127;SDS011;60000;51.030;7.024;2023-10-08T05:17:04;6.20;;;2.17;;
72127;SDS011;60000;51.030;7.024;2023-10-08T05:19:43;6.25;;;2.00;;
72127;SDS011;60000;51.030;7.024;2023-10-08T05:22:12;5.95;;;2.10;;
72127;SDS011;60000;51.030;7.024;2023-10-08T05:24:47;5.75;;;2.08;;
72127;SDS011;60000;51.030;7.024;2023-10-08T05:27:40;5.28;;;2.00;;
72127;SDS011;60000;51.030;7.024;2023-10-08T05:30:12;5.43;;;2.13;;
72127;SDS011;60000;51.030;7.024;2023-10-08T05:32:42;6.32;;;2.10;;
72127;SDS011;60000;51.030;7.024;2023-10-08T05:35:26;6.38;;;2.00;;
72127;SDS011;60000;51.030;7.024;2023-10-08T05:38:07;5.75;;;1.80;;
72127;SDS011;60000;51.030;7.024;2023-10-08T05:40:48;6.07;;;2.10;;
72127;SDS011;60000;51.030;7.024;2023-10-08T05:43:29;7.27;;;2.10;;
72127;SDS011;60000;51.030;7.024;2023-10-08T05:49:04;5.78;;;2.00;;
72127;SDS011;60000;51.030;7.024;2023-10-08T05:51:40;6.00;;;2.17;;
72127;SDS011;60000;51.030;7.024;2023-10-08T05:54:15;6.13;;;2.20;;
72127;SDS011;60000;51.030;7.024;2023-10-08T05:57:04;7.10;;;2.30;;
72127;SDS011;60000;51.030;7.024;2023-10-08T06:02:25;5.82;;;2.33;;
72127;SDS011;60000;51.030;7.024;2023-10-08T06:07:50;6.95;;;3.08;;
72127;SDS011;60000;51.030;7.024;2023-10-08T06:10:29;6.87;;;2.47;;
72127;SDS011;60000;51.030;7.024;2023-10-08T06:12:55;6.07;;;2.30;;
72127;SDS011;60000;51.030;7.024;2023-10-08T06:15:34;6.97;;;2.50;;
72127;SDS011;60000;51.030;7.024;2023-10-08T06:18:27;6.18;;;2.10;;
72127;SDS011;60000;51.030;7.024;2023-10-08T06:20:54;6.43;;;2.40;;
72127;SDS011;60000;51.030;7.024;2023-10-08T06:23:21;7.23;;;2.63;;
72127;SDS011;60000;51.030;7.024;2023-10-08T06:25:49;7.97;;;2.95;;
72127;SDS011;60000;51.030;7.024;2023-10-08T06:28:30;7.45;;;2.78;;
72127;SDS011;60000;51.030;7.024;2023-10-08T06:31:00;6.55;;;2.58;;
72127;SDS011;60000;51.030;7.024;2023-10-08T06:33:27;5.78;;;2.63;;
72127;SDS011;60000;51.030;7.024;2023-10-08T06:36:04;6.27;;;2.63;;
72127;SDS011;60000;51.030;7.024;2023-10-08T06:38:38;5.47;;;2.03;;
72127;SDS011;60000;51.030;7.024;2023-10-08T06:41:06;6.00;;;2.47;;
72127;SDS011;60000;51.030;7.024;2023-10-08T06:43:38;9.25;;;3.10;;
72127;SDS011;60000;51.030;7.024;2023-10-08T06:46:04;18.83;;;4.20;;
72127;SDS011;60000;51.030;7.024;2023-10-08T06:48:32;49.03;;;11.10;;
72127;SDS011;60000;51.030;7.024;2023-10-08T06:50:59;30.00;;;7.38;;
72127;SDS011;60000;51.030;7.024;2023-10-08T06:53:32;23.65;;;5.68;;
72127;SDS011;60000;51.030;7.024;2023-10-08T06:56:03;20.98;;;5.85;;
72127;SDS011;60000;51.030;7.024;2023-10-08T06:58:29;20.05;;;5.97;;
72127;SDS011;60000;51.030;7.024;2023-10-08T07:00:59;19.35;;;5.05;;
72127;SDS011;60000;51.030;7.024;2023-10-08T07:03:29;14.25;;;4.95;;
72127;SDS011;60000;51.030;7.024;2023-10-08T07:05:56;12.05;;;4.35;;
72127;SDS011;60000;51.030;7.024;2023-10-08T07:08:31;11.57;;;4.18;;
72127;SDS011;60000;51.030;7.024;2023-10-08T07:10:57;12.38;;;4.20;;
72127;SDS011;60000;51.030;7.024;2023-10-08T07:13:26;10.27;;;3.15;;
72127;SDS011;60000;51.030;7.024;2023-10-08T07:15:54;8.55;;;3.08;;
72127;SDS011;60000;51.030;7.024;2023-10-08T07:18:21;9.45;;;3.03;;
72127;SDS011;60000;51.030;7.024;2023-10-08T07:20:50;8.73;;;3.15;;
72127;SDS011;60000;51.030;7.024;2023-10-08T07:23:23;7.43;;;3.03;;
72127;SDS011;60000;51.030;7.024;2023-10-08T07:28:26;8.02;;;2.80;;
72127;SDS011;60000;51.030;7.024;2023-10-08T07:30:54;7.85;;;2.90;;
72127;SDS011;60000;51.030;7.024;2023-10-08T07:33:20;8.63;;;3.00;;
72127;SDS011;60000;51.030;7.024;2023-10-08T07:35:49;7.50;;;3.05;;
72127;SDS011;60000;51.030;7.024;2023-10-08T07:38:22;9.07;;;3.10;;
72127;SDS011;60000;51.030;7.024;2023-10-08T07:40:52;8.73;;;2.90;;
72127;SDS011;60000;51.030;7.024;2023-10-08T07:43:18;9.10;;;3.15;;
72127;SDS011;60000;51.030;7.024;2023-10-08T07:45:45;9.73;;;3.40;;
72127;SDS011;60000;51.030;7.024;2023-10-08T07:48:11;9.70;;;3.17;;
72127;SDS011;60000;51.030;7.024;2023-10-08T07:50:40;9.43;;;3.23;;
72127;SDS011;60000;51.030;7.024;2023-10-08T07:53:06;7.32;;;2.80;;
72127;SDS011;60000;51.030;7.024;2023-10-08T07:55:34;8.40;;;2.73;;
72127;SDS011;60000;51.030;7.024;2023-10-08T07:58:00;7.25;;;2.90;;
72127;SDS011;60000;51.030;7.024;2023-10-08T08:00:25;7.47;;;2.70;;
72127;SDS011;60000;51.030;7.024;2023-10-08T08:02:55;8.18;;;3.30;;
72127;SDS011;60000;51.030;7.024;2023-10-08T08:05:22;8.18;;;3.20;;
72127;SDS011;60000;51.030;7.024;2023-10-08T08:07:48;7.13;;;2.83;;
72127;SDS011;60000;51.030;7.024;2023-10-08T08:10:17;5.88;;;2.60;;
72127;SDS011;60000;51.030;7.024;2023-10-08T08:12:43;8.20;;;2.85;;
72127;SDS011;60000;51.030;7.024;2023-10-08T08:15:10;8.20;;;3.20;;
72127;SDS011;60000;51.030;7.024;2023-10-08T08:17:42;7.63;;;2.95;;
72127;SDS011;60000;51.030;7.024;2023-10-08T08:20:08;10.02;;;3.28;;
72127;SDS011;60000;51.030;7.024;2023-10-08T08:22:43;6.50;;;2.67;;
72127;SDS011;60000;51.030;7.024;2023-10-08T08:25:15;7.80;;;3.00;;
72127;SDS011;60000;51.030;7.024;2023-10-08T08:27:41;7.78;;;2.50;;
72127;SDS011;60000;51.030;7.024;2023-10-08T08:30:11;7.43;;;2.58;;
72127;SDS011;60000;51.030;7.024;2023-10-08T08:32:41;7.57;;;2.67;;
72127;SDS011;60000;51.030;7.024;2023-10-08T08:35:10;6.80;;;3.05;;
72127;SDS011;60000;51.030;7.024;2023-10-08T08:37:37;7.30;;;2.78;;
72127;SDS011;60000;51.030;7.024;2023-10-08T08:40:06;7.00;;;2.67;;
72127;SDS011;60000;51.030;7.024;2023-10-08T08:42:42;8.07;;;3.08;;
72127;SDS011;60000;51.030;7.024;2023-10-08T08:45:09;7.10;;;2.70;;
72127;SDS011;60000;51.030;7.024;2023-10-08T08:47:38;8.38;;;3.35;;
72127;SDS011;60000;51.030;7.024;2023-10-08T08:50:08;7.35;;;2.92;;
72127;SDS011;60000;51.030;7.024;2023-10-08T08:52:37;10.37;;;3.90;;
72127;SDS011;60000;51.030;7.024;2023-10-08T08:55:04;9.77;;;3.20;;
72127;SDS011;60000;51.030;7.024;2023-10-08T08:57:34;7.53;;;3.40;;
72127;SDS011;60000;51.030;7.024;2023-10-08T09:00:04;9.38;;;3.35;;
72127;SDS011;60000;51.030;7.024;2023-10-08T09:02:37;10.57;;;3.30;;
72127;SDS011;60000;51.030;7.024;2023-10-08T09:05:03;8.77;;;3.53;;
72127;SDS011;60000;51.030;7.024;2023-10-08T09:08:03;7.63;;;2.63;;
72127;SDS011;60000;51.030;7.024;2023-10-08T09:10:31;9.05;;;3.60;;
72127;SDS011;60000;51.030;7.024;2023-10-08T09:13:02;7.18;;;2.70;;
72127;SDS011;60000;51.030;7.024;2023-10-08T09:15:29;7.78;;;2.97;;
72127;SDS011;60000;51.030;7.024;2023-10-08T09:17:57;8.00;;;2.83;;
72127;SDS011;60000;51.030;7.024;2023-10-08T09:20:26;7.90;;;3.10;;
72127;SDS011;60000;51.030;7.024;2023-10-08T09:23:08;9.15;;;3.65;;
72127;SDS011;60000;51.030;7.024;2023-10-08T09:25:37;9.67;;;3.43;;
72127;SDS011;60000;51.030;7.024;2023-10-08T09:28:04;8.73;;;3.15;;
72127;SDS011;60000;51.030;7.024;2023-10-08T09:30:32;8.30;;;3.13;;
72127;SDS011;60000;51.030;7.024;2023-10-08T09:33:08;10.63;;;3.47;;
72127;SDS011;60000;51.030;7.024;2023-10-08T09:35:35;12.02;;;4.03;;
72127;SDS011;60000;51.030;7.024;2023-10-08T09:38:02;15.47;;;5.20;;
72127;SDS011;60000;51.030;7.024;2023-10-08T09:40:28;13.25;;;4.55;;
72127;SDS011;60000;51.030;7.024;2023-10-08T09:42:54;15.68;;;5.00;;
72127;SDS011;60000;51.030;7.024;2023-10-08T09:45:20;10.20;;;3.90;;
72127;SDS011;60000;51.030;7.024;2023-10-08T09:47:49;12.90;;;4.45;;
72127;SDS011;60000;51.030;7.024;2023-10-08T09:50:17;10.68;;;3.58;;
72127;SDS011;60000;51.030;7.024;2023-10-08T09:52:49;11.65;;;3.95;;
72127;SDS011;60000;51.030;7.024;2023-10-08T09:55:49;10.35;;;3.45;;
72127;SDS011;60000;51.030;7.024;2023-10-08T09:58:19;12.50;;;4.40;;
72127;SDS011;60000;51.030;7.024;2023-10-08T10:00:47;11.80;;;4.32;;
72127;SDS011;60000;51.030;7.024;2023-10-08T10:03:14;10.73;;;3.97;;
72127;SDS011;60000;51.030;7.024;2023-10-08T10:05:41;11.70;;;4.35;;
72127;SDS011;60000;51.030;7.024;2023-10-08T10:08:08;12.27;;;4.30;;
72127;SDS011;60000;51.030;7.024;2023-10-08T10:10:37;13.33;;;4.63;;
72127;SDS011;60000;51.030;7.024;2023-10-08T10:13:03;10.23;;;4.30;;
72127;SDS011;60000;51.030;7.024;2023-10-08T10:15:33;13.57;;;4.25;;
72127;SDS011;60000;51.030;7.024;2023-10-08T10:20:58;12.77;;;4.28;;
72127;SDS011;60000;51.030;7.024;2023-10-08T10:23:38;12.50;;;4.63;;
72127;SDS011;60000;51.030;7.024;2023-10-08T10:31:34;9.63;;;3.67;;
72127;SDS011;60000;51.030;7.024;2023-10-08T10:34:04;10.00;;;4.17;;
72127;SDS011;60000;51.030;7.024;2023-10-08T10:36:36;12.57;;;4.28;;
72127;SDS011;60000;51.030;7.024;2023-10-08T10:39:04;10.07;;;3.58;;
72127;SDS011;60000;51.030;7.024;2023-10-08T10:41:43;12.73;;;4.07;;
72127;SDS011;60000;51.030;7.024;2023-10-08T10:44:13;9.07;;;3.67;;
72127;SDS011;60000;51.030;7.024;2023-10-08T10:46:40;10.47;;;3.50;;
72127;SDS011;60000;51.030;7.024;2023-10-08T10:49:07;10.85;;;3.83;;
72127;SDS011;60000;51.030;7.024;2023-10-08T10:51:52;16.67;;;4.90;;
72127;SDS011;60000;51.030;7.024;2023-10-08T10:54:17;12.93;;;5.03;;
72127;SDS011;60000;51.030;7.024;2023-10-08T10:56:48;12.68;;;4.90;;
72127;SDS011;60000;51.030;7.024;2023-10-08T10:59:28;10.88;;;4.10;;
72127;SDS011;60000;51.030;7.024;2023-10-08T11:01:53;9.40;;;3.93;;
72127;SDS011;60000;51.030;7.024;2023-10-08T11:04:31;14.65;;;4.90;;
72127;SDS011;60000;51.030;7.024;2023-10-08T11:06:57;12.53;;;3.77;;
72127;SDS011;60000;51.030;7.024;2023-10-08T11:09:25;14.30;;;4.72;;
72127;SDS011;60000;51.030;7.024;2023-10-08T11:12:04;14.98;;;4.60;;
72127;SDS011;60000;51.030;7.024;2023-10-08T11:14:40;13.30;;;4.68;;
72127;SDS011;60000;51.030;7.024;2023-10-08T11:17:13;12.10;;;4.37;;
72127;SDS011;60000;51.030;7.024;2023-10-08T11:19:41;10.65;;;4.32;;
72127;SDS011;60000;51.030;7.024;2023-10-08T11:22:08;12.80;;;4.47;;
72127;SDS011;60000;51.030;7.024;2023-10-08T11:24:41;14.65;;;4.95;;
72127;SDS011;60000;51.030;7.024;2023-10-08T11:27:07;11.98;;;4.70;;
72127;SDS011;60000;51.030;7.024;2023-10-08T11:29:46;13.80;;;4.40;;
72127;SDS011;60000;51.030;7.024;2023-10-08T11:32:13;15.95;;;5.28;;
72127;SDS011;60000;51.030;7.024;2023-10-08T11:34:42;12.65;;;5.10;;
72127;SDS011;60000;51.030;7.024;2023-10-08T11:37:14;19.13;;;5.40;;
72127;SDS011;60000;51.030;7.024;2023-10-08T11:39:50;15.65;;;5.22;;
72127;SDS011;60000;51.030;7.024;2023-10-08T11:42:18;16.73;;;6.27;;
72127;SDS011;60000;51.030;7.024;2023-10-08T11:45:02;10.68;;;4.55;;
72127;SDS011;60000;51.030;7.024;2023-10-08T11:47:46;15.45;;;5.15;;
72127;SDS011;60000;51.030;7.024;2023-10-08T11:50:13;16.40;;;5.32;;
72127;SDS011;60000;51.030;7.024;2023-10-08T11:52:44;14.98;;;5.63;;
72127;SDS011;60000;51.030;7.024;2023-10-08T11:55:09;14.23;;;5.30;;
72127;SDS011;60000;51.030;7.024;2023-10-08T11:57:35;15.30;;;5.33;;
72127;SDS011;60000;51.030;7.024;2023-10-08T12:00:01;16.50;;;5.83;;
72127;SDS011;60000;51.030;7.024;2023-10-08T12:02:41;15.45;;;5.38;;
72127;SDS011;60000;51.030;7.024;2023-10-08T12:05:08;16.23;;;6.78;;
72127;SDS011;60000;51.030;7.024;2023-10-08T12:07:43;16.63;;;5.55;;
72127;SDS011;60000;51.030;7.024;2023-10-08T12:10:12;17.87;;;6.70;;
72127;SDS011;60000;51.030;7.024;2023-10-08T12:12:38;16.23;;;6.47;;
72127;SDS011;60000;51.030;7.024;2023-10-08T12:15:03;15.40;;;5.60;;
72127;SDS011;60000;51.030;7.024;2023-10-08T12:17:29;14.82;;;5.95;;
72127;SDS011;60000;51.030;7.024;2023-10-08T12:20:04;17.95;;;5.78;;
72127;SDS011;60000;51.030;7.024;2023-10-08T12:22:47;12.13;;;4.83;;
72127;SDS011;60000;51.030;7.024;2023-10-08T12:25:15;17.88;;;5.68;;
72127;SDS011;60000;51.030;7.024;2023-10-08T12:27:41;14.30;;;5.07;;
72127;SDS011;60000;51.030;7.024;2023-10-08T12:30:06;13.17;;;4.90;;
72127;SDS011;60000;51.030;7.024;2023-10-08T12:32:35;15.20;;;5.30;;
72127;SDS011;60000;51.030;7.024;2023-10-08T12:35:07;12.45;;;4.70;;
72127;SDS011;60000;51.030;7.024;2023-10-08T12:37:40;10.88;;;4.68;;
72127;SDS011;60000;51.030;7.024;2023-10-08T12:40:09;10.02;;;4.03;;
72127;SDS011;60000;51.030;7.024;2023-10-08T12:42:47;11.50;;;3.90;;
72127;SDS011;60000;51.030;7.024;2023-10-08T12:45:16;10.45;;;4.43;;
72127;SDS011;60000;51.030;7.024;2023-10-08T12:47:46;11.15;;;3.88;;
72127;SDS011;60000;51.030;7.024;2023-10-08T12:50:18;11.95;;;4.50;;
72127;SDS011;60000;51.030;7.024;2023-10-08T12:52:54;9.05;;;3.80;;
72127;SDS011;60000;51.030;7.024;2023-10-08T12:55:22;11.60;;;4.63;;
72127;SDS011;60000;51.030;7.024;2023-10-08T12:57:52;13.98;;;5.03;;
72127;SDS011;60000;51.030;7.024;2023-10-08T13:00:21;12.77;;;4.72;;
72127;SDS011;60000;51.030;7.024;2023-10-08T13:02:48;12.27;;;4.72;;
72127;SDS011;60000;51.030;7.024;2023-10-08T13:05:18;16.40;;;6.00;;
72127;SDS011;60000;51.030;7.024;2023-10-08T13:07:51;10.67;;;5.00;;
72127;SDS011;60000;51.030;7.024;2023-10-08T13:10:19;12.00;;;4.57;;
72127;SDS011;60000;51.030;7.024;2023-10-08T13:12:46;12.93;;;5.07;;
72127;SDS011;60000;51.030;7.024;2023-10-08T13:15:12;10.30;;;4.90;;
72127;SDS011;60000;51.030;7.024;2023-10-08T13:17:37;12.25;;;4.53;;
72127;SDS011;60000;51.030;7.024;2023-10-08T13:20:04;12.57;;;4.77;;
72127;SDS011;60000;51.030;7.024;2023-10-08T13:22:36;13.90;;;4.60;;
72127;SDS011;60000;51.030;7.024;2023-10-08T13:25:02;13.27;;;4.93;;
72127;SDS011;60000;51.030;7.024;2023-10-08T13:27:29;18.92;;;6.18;;
72127;SDS011;60000;51.030;7.024;2023-10-08T13:29:55;14.32;;;5.20;;
72127;SDS011;60000;51.030;7.024;2023-10-08T13:32:20;14.00;;;4.97;;
72127;SDS011;60000;51.030;7.024;2023-10-08T13:34:46;13.33;;;5.97;;
72127;SDS011;60000;51.030;7.024;2023-10-08T13:37:11;13.40;;;5.00;;
72127;SDS011;60000;51.030;7.024;2023-10-08T13:39:36;12.37;;;4.80;;
72127;SDS011;60000;51.030;7.024;2023-10-08T13:42:05;12.43;;;5.28;;
72127;SDS011;60000;51.030;7.024;2023-10-08T13:44:30;11.50;;;4.57;;
72127;SDS011;60000;51.030;7.024;2023-10-08T13:46:56;13.10;;;5.15;;
72127;SDS011;60000;51.030;7.024;2023-10-08T13:49:23;14.97;;;5.63;;
72127;SDS011;60000;51.030;7.024;2023-10-08T13:51:51;12.70;;;5.18;;
72127;SDS011;60000;51.030;7.024;2023-10-08T13:54:21;11.65;;;5.38;;
72127;SDS011;60000;51.030;7.024;2023-10-08T13:56:47;10.80;;;4.63;;
72127;SDS011;60000;51.030;7.024;2023-10-08T13:59:15;13.40;;;4.90;;
72127;SDS011;60000;51.030;7.024;2023-10-08T14:01:42;15.90;;;5.40;;
72127;SDS011;60000;51.030;7.024;2023-10-08T14:04:11;14.30;;;4.90;;
72127;SDS011;60000;51.030;7.024;2023-10-08T14:06:42;12.23;;;5.30;;
72127;SDS011;60000;51.030;7.024;2023-10-08T14:09:13;13.20;;;5.05;;
72127;SDS011;60000;51.030;7.024;2023-10-08T14:11:45;11.75;;;4.32;;
72127;SDS011;60000;51.030;7.024;2023-10-08T14:14:11;9.57;;;4.50;;
72127;SDS011;60000;51.030;7.024;2023-10-08T14:16:38;12.52;;;5.53;;
72127;SDS011;60000;51.030;7.024;2023-10-08T14:19:07;11.57;;;4.75;;
72127;SDS011;60000;51.030;7.024;2023-10-08T14:21:33;15.90;;;5.50;;
72127;SDS011;60000;51.030;7.024;2023-10-08T14:24:04;13.80;;;5.07;;
72127;SDS011;60000;51.030;7.024;2023-10-08T14:26:30;11.52;;;4.60;;
72127;SDS011;60000;51.030;7.024;2023-10-08T14:29:01;15.27;;;5.72;;
72127;SDS011;60000;51.030;7.024;2023-10-08T14:31:40;12.27;;;5.13;;
72127;SDS011;60000;51.030;7.024;2023-10-08T14:34:07;12.30;;;4.88;;
72127;SDS011;60000;51.030;7.024;2023-10-08T14:36:50;12.63;;;4.65;;
72127;SDS011;60000;51.030;7.024;2023-10-08T14:39:34;10.05;;;4.70;;
72127;SDS011;60000;51.030;7.024;2023-10-08T14:42:19;11.73;;;4.78;;
72127;SDS011;60000;51.030;7.024;2023-10-08T14:45:03;16.13;;;5.03;;
72127;SDS011;60000;51.030;7.024;2023-10-08T14:47:36;15.88;;;5.55;;
72127;SDS011;60000;51.030;7.024;2023-10-08T14:50:02;12.48;;;4.55;;
72127;SDS011;60000;51.030;7.024;2023-10-08T14:52:30;16.75;;;5.90;;
72127;SDS011;60000;51.030;7.024;2023-10-08T14:54:56;11.90;;;4.45;;
72127;SDS011;60000;51.030;7.024;2023-10-08T14:57:21;11.80;;;4.40;;
72127;SDS011;60000;51.030;7.024;2023-10-08T14:59:47;11.77;;;4.50;;
72127;SDS011;60000;51.030;7.024;2023-10-08T15:02:13;12.00;;;4.47;;
72127;SDS011;60000;51.030;7.024;2023-10-08T15:04:39;10.48;;;4.15;;
72127;SDS011;60000;51.030;7.024;2023-10-08T15:07:05;8.33;;;3.63;;
72127;SDS011;60000;51.030;7.024;2023-10-08T15:09:33;8.15;;;3.70;;
72127;SDS011;60000;51.030;7.024;2023-10-08T15:11:59;10.43;;;3.83;;
72127;SDS011;60000;51.030;7.024;2023-10-08T15:14:24;11.40;;;3.60;;
72127;SDS011;60000;51.030;7.024;2023-10-08T15:16:51;10.35;;;4.00;;
72127;SDS011;60000;51.030;7.024;2023-10-08T15:19:20;12.13;;;4.30;;
72127;SDS011;60000;51.030;7.024;2023-10-08T15:21:47;13.13;;;4.70;;
72127;SDS011;60000;51.030;7.024;2023-10-08T15:24:16;11.85;;;4.07;;
72127;SDS011;60000;51.030;7.024;2023-10-08T15:26:48;9.93;;;3.50;;